createdAt,value
2022-10-01T00:01:08.358Z,15.40
2022-10-01T00:03:36.393Z,12.63
2022-10-01T00:06:15.171Z,14.25
2022-10-01T00:08:42.578Z,15.18
2022-10-01T00:11:13.971Z,14.60
2022-10-01T00:13:42.321Z,13.50
2022-10-01T00:16:11.913Z,14.75
2022-10-01T00:18:40.160Z,12.75
2022-10-01T00:21:13.826Z,13.13
2022-10-01T00:23:40.817Z,15.02
2022-10-01T00:26:12.484Z,15.35
2022-10-01T00:28:39.470Z,15.27
2022-10-01T00:31:07.763Z,15.82
2022-10-01T00:33:34.915Z,14.70
2022-10-01T00:36:01.559Z,14.45
2022-10-01T00:38:27.860Z,14.98
2022-10-01T00:40:54.176Z,14.93
2022-10-01T00:43:26.222Z,17.73
2022-10-01T00:45:57.242Z,15.70
2022-10-01T00:48:25.640Z,15.25
2022-10-01T00:50:52.553Z,15.68
2022-10-01T00:53:20.254Z,14.77
2022-10-01T00:55:51.437Z,14.48
2022-10-01T00:58:19.509Z,16.90
2022-10-01T01:00:45.942Z,15.43
2022-10-01T01:03:13.117Z,15.25
2022-10-01T01:05:39.425Z,14.07
2022-10-01T01:08:07.039Z,14.43
2022-10-01T01:10:41.641Z,14.07
2022-10-01T01:13:24.768Z,12.68
2022-10-01T01:16:09.076Z,15.18
2022-10-01T01:18:38.723Z,14.02
2022-10-01T01:21:19.245Z,12.90
2022-10-01T01:24:15.063Z,15.20
2022-10-01T01:27:04.722Z,15.23
2022-10-01T01:29:38.662Z,13.25
2022-10-01T01:32:14.841Z,12.95
2022-10-01T01:34:44.806Z,13.95
2022-10-01T01:37:15.396Z,12.80
2022-10-01T01:39:46.042Z,14.55
2022-10-01T01:42:21.837Z,9.95
2022-10-01T01:44:49.510Z,12.40
2022-10-01T01:47:18.147Z,12.75
2022-10-01T01:49:46.007Z,14.05
2022-10-01T01:52:15.006Z,14.18
2022-10-01T01:54:46.459Z,12.30
2022-10-01T01:57:13.955Z,13.73
2022-10-01T01:59:41.193Z,11.40
2022-10-01T02:02:12.545Z,11.93
2022-10-01T02:04:48.692Z,12.13
2022-10-01T02:07:32.129Z,11.45
2022-10-01T02:10:12.622Z,11.85
2022-10-01T02:13:12.510Z,13.48
2022-10-01T02:15:53.850Z,9.70
2022-10-01T02:18:46.609Z,11.80
2022-10-01T02:21:21.033Z,11.45
2022-10-01T02:23:54.757Z,9.27
2022-10-01T02:26:23.435Z,10.38
2022-10-01T02:28:53.947Z,11.00
2022-10-01T02:31:22.885Z,10.77
2022-10-01T02:33:52.177Z,9.90
2022-10-01T02:36:20.705Z,10.55
2022-10-01T02:38:48.868Z,10.65
2022-10-01T02:41:21.842Z,10.50
2022-10-01T02:43:58.424Z,10.18
2022-10-01T02:46:36.237Z,9.52
2022-10-01T02:49:03.176Z,10.90
2022-10-01T02:51:37.849Z,8.75
2022-10-01T02:54:12.063Z,8.18
2022-10-01T02:56:48.422Z,9.80
2022-10-01T02:59:15.287Z,8.00
2022-10-01T03:01:41.716Z,7.35
2022-10-01T03:04:08.130Z,7.70
2022-10-01T03:06:34.434Z,6.13
2022-10-01T03:09:00.716Z,6.75
2022-10-01T03:11:27.041Z,7.72
2022-10-01T03:13:53.353Z,6.90
2022-10-01T03:16:19.705Z,7.13
2022-10-01T03:18:46.042Z,7.88
2022-10-01T03:21:12.351Z,5.95
2022-10-01T03:23:38.642Z,5.65
2022-10-01T03:26:05.018Z,5.53
2022-10-01T03:28:31.386Z,5.32
2022-10-01T03:31:05.813Z,6.05
2022-10-01T03:33:32.172Z,5.43
2022-10-01T03:35:58.457Z,3.70
2022-10-01T03:38:24.763Z,4.43
2022-10-01T03:40:51.064Z,4.05
2022-10-01T03:43:17.349Z,4.72
2022-10-01T03:45:43.692Z,4.13
2022-10-01T03:48:10.073Z,3.83
2022-10-01T03:50:36.428Z,3.63
2022-10-01T03:53:02.754Z,4.68
2022-10-01T03:55:29.065Z,4.13
2022-10-01T03:57:55.387Z,3.63
2022-10-01T04:00:22.113Z,3.90
2022-10-01T04:02:48.475Z,4.95
2022-10-01T04:05:14.962Z,4.43
2022-10-01T04:07:42.131Z,3.70
2022-10-01T04:10:09.120Z,5.68
2022-10-01T04:12:35.444Z,5.35
2022-10-01T04:15:01.733Z,5.70
2022-10-01T04:17:29.592Z,5.72
2022-10-01T04:19:55.893Z,7.57
2022-10-01T04:22:22.246Z,6.47
2022-10-01T04:24:48.568Z,5.78
2022-10-01T04:27:14.869Z,6.13
2022-10-01T04:29:41.189Z,6.20
2022-10-01T04:32:07.609Z,6.22
2022-10-01T04:34:33.981Z,6.20
2022-10-01T04:37:00.315Z,6.07
2022-10-01T04:39:26.605Z,5.97
2022-10-01T04:41:52.916Z,7.72
2022-10-01T04:44:19.223Z,7.50
2022-10-01T04:46:45.601Z,9.05
2022-10-01T04:49:11.962Z,7.85
2022-10-01T04:51:38.258Z,7.30
2022-10-01T04:54:04.564Z,7.45
2022-10-01T04:56:30.885Z,9.07
2022-10-01T04:58:57.185Z,7.97
2022-10-01T05:01:23.698Z,8.18
2022-10-01T05:03:50.098Z,8.75
2022-10-01T05:06:16.410Z,8.40
2022-10-01T05:08:42.770Z,8.95
2022-10-01T05:11:09.171Z,8.80
2022-10-01T05:13:35.474Z,8.45
2022-10-01T05:16:01.846Z,9.52
2022-10-01T05:18:28.225Z,8.75
2022-10-01T05:20:54.506Z,8.57
2022-10-01T05:23:20.974Z,10.02
2022-10-01T05:25:47.347Z,10.15
2022-10-01T05:28:18.443Z,11.25
2022-10-01T05:30:48.414Z,10.07
2022-10-01T05:33:14.741Z,9.95
2022-10-01T05:35:41.272Z,10.73
2022-10-01T05:38:07.987Z,11.55
2022-10-01T05:40:34.349Z,9.90
2022-10-01T05:43:00.672Z,13.05
2022-10-01T05:45:28.223Z,12.20
2022-10-01T05:47:59.742Z,12.43
2022-10-01T05:50:27.150Z,11.25
2022-10-01T05:52:53.932Z,12.90
2022-10-01T05:55:21.293Z,11.73
2022-10-01T05:57:54.995Z,12.20
2022-10-01T06:00:21.428Z,13.07
2022-10-01T06:02:52.523Z,13.40
2022-10-01T06:05:20.081Z,13.75
2022-10-01T06:07:46.579Z,12.48
2022-10-01T06:10:12.926Z,13.95
2022-10-01T06:12:39.581Z,13.45
2022-10-01T06:15:06.285Z,14.23
2022-10-01T06:17:33.227Z,13.82
2022-10-01T06:19:59.665Z,14.77
2022-10-01T06:22:25.986Z,12.93
2022-10-01T06:24:56.511Z,13.68
2022-10-01T06:27:23.040Z,13.27
2022-10-01T06:29:49.380Z,15.23
2022-10-01T06:32:15.695Z,16.13
2022-10-01T06:34:41.983Z,14.02
2022-10-01T06:37:08.293Z,13.10
2022-10-01T06:39:34.631Z,15.35
2022-10-01T06:42:00.924Z,15.65
2022-10-01T06:44:27.269Z,13.75
2022-10-01T06:46:53.607Z,16.08
2022-10-01T06:49:19.952Z,14.25
2022-10-01T06:51:46.383Z,14.50
2022-10-01T06:54:12.706Z,13.93
2022-10-01T06:56:39.015Z,14.77
2022-10-01T06:59:05.362Z,12.07
2022-10-01T07:01:32.097Z,12.25
2022-10-01T07:03:58.853Z,10.98
2022-10-01T07:06:26.228Z,12.95
2022-10-01T07:08:52.606Z,9.23
2022-10-01T07:11:18.905Z,12.27
2022-10-01T07:13:45.517Z,10.65
2022-10-01T07:16:13.487Z,9.27
2022-10-01T07:18:39.837Z,10.13
2022-10-01T07:21:06.687Z,9.98
2022-10-01T07:23:33.154Z,10.68
2022-10-01T07:25:59.507Z,13.02
2022-10-01T07:28:25.872Z,8.27
2022-10-01T07:31:05.133Z,8.32
2022-10-01T07:33:31.426Z,8.70
2022-10-01T07:36:01.137Z,12.70
2022-10-01T07:38:27.463Z,7.10
2022-10-01T07:40:54.019Z,9.35
2022-10-01T07:43:21.098Z,10.85
2022-10-01T07:45:47.752Z,9.23
2022-10-01T07:48:14.163Z,7.53
2022-10-01T07:50:45.969Z,9.80
2022-10-01T07:53:13.212Z,7.35
2022-10-01T07:55:39.564Z,7.20
2022-10-01T07:58:06.210Z,7.80
2022-10-01T08:00:34.109Z,8.35
2022-10-01T08:03:00.462Z,8.45
2022-10-01T08:05:29.195Z,6.47
2022-10-01T08:08:00.611Z,8.13
2022-10-01T08:10:27.207Z,8.25
2022-10-01T08:13:00.291Z,9.32
2022-10-01T08:15:26.986Z,12.02
2022-10-01T08:17:53.275Z,9.57
2022-10-01T08:20:19.630Z,9.38
2022-10-01T08:22:45.927Z,8.57
2022-10-01T08:25:12.263Z,9.57
2022-10-01T08:27:38.596Z,9.93
2022-10-01T08:30:05.412Z,9.75
2022-10-01T08:32:31.959Z,10.98
2022-10-01T08:34:58.315Z,9.63
2022-10-01T08:37:29.224Z,8.05
2022-10-01T08:39:56.669Z,8.68
2022-10-01T08:42:39.421Z,8.23
2022-10-01T08:45:13.105Z,6.07
2022-10-01T08:47:45.347Z,6.70
2022-10-01T08:50:27.691Z,7.45
2022-10-01T08:53:02.156Z,6.30
2022-10-01T08:55:32.270Z,7.00
2022-10-01T08:58:02.355Z,5.97
2022-10-01T09:00:31.423Z,5.72
2022-10-01T09:03:00.533Z,6.10
2022-10-01T09:05:48.171Z,8.15
2022-10-01T09:08:46.094Z,7.00
2022-10-01T09:11:46.446Z,8.05
2022-10-01T09:14:50.969Z,6.88
2022-10-01T09:17:33.470Z,8.25
2022-10-01T09:20:20.807Z,6.53
2022-10-01T09:22:54.555Z,8.38
2022-10-01T09:25:26.083Z,8.13
2022-10-01T09:28:01.345Z,7.45
2022-10-01T09:30:29.061Z,6.72
2022-10-01T09:33:02.279Z,9.63
2022-10-01T09:35:52.525Z,9.38
2022-10-01T09:38:25.885Z,9.85
2022-10-01T09:40:55.113Z,11.63
2022-10-01T09:43:28.615Z,9.07
2022-10-01T09:45:55.488Z,9.13
2022-10-01T09:48:55.262Z,10.20
2022-10-01T09:51:27.353Z,11.15
2022-10-01T09:54:15.049Z,10.25
2022-10-01T09:56:49.695Z,8.23
2022-10-01T09:59:23.246Z,10.05
2022-10-01T10:02:01.854Z,8.73
2022-10-01T10:04:28.247Z,8.98
2022-10-01T10:07:03.666Z,9.20
2022-10-01T10:09:32.787Z,10.05
2022-10-01T10:11:59.721Z,8.25
2022-10-01T10:14:33.749Z,8.38
2022-10-01T10:17:06.796Z,11.23
2022-10-01T10:19:33.669Z,7.88
2022-10-01T10:22:20.613Z,8.50
2022-10-01T10:24:47.007Z,11.23
2022-10-01T10:27:23.467Z,9.10
2022-10-01T10:29:49.812Z,9.43
2022-10-01T10:32:26.308Z,8.73
2022-10-01T10:35:02.016Z,8.85
2022-10-01T10:37:32.516Z,7.30
2022-10-01T10:39:58.934Z,6.40
2022-10-01T10:42:25.743Z,8.65
2022-10-01T10:44:54.841Z,6.75
2022-10-01T10:47:22.269Z,6.78
2022-10-01T10:49:52.856Z,5.65
2022-10-01T10:52:28.767Z,7.60
2022-10-01T10:54:56.934Z,7.35
2022-10-01T10:57:29.745Z,7.18
2022-10-01T11:00:01.218Z,7.75
2022-10-01T11:02:30.133Z,9.98
2022-10-01T11:05:04.314Z,7.57
2022-10-01T11:07:31.367Z,13.48
2022-10-01T11:10:25.158Z,8.40
2022-10-01T11:13:23.936Z,7.47
2022-10-01T11:16:20.718Z,9.82
2022-10-01T11:19:15.126Z,8.10
2022-10-01T11:21:50.214Z,8.63
2022-10-01T11:24:41.972Z,7.80
2022-10-01T11:27:33.266Z,10.43
2022-10-01T11:30:07.357Z,5.88
2022-10-01T11:32:38.947Z,7.80
2022-10-01T11:35:26.866Z,9.27
2022-10-01T11:38:00.487Z,10.85
2022-10-01T11:40:39.022Z,8.57
2022-10-01T11:43:20.646Z,7.97
2022-10-01T11:45:51.452Z,5.85
2022-10-01T11:48:33.805Z,7.53
2022-10-01T11:51:08.360Z,8.40
2022-10-01T11:53:41.668Z,5.57
2022-10-01T11:56:15.861Z,8.85
2022-10-01T11:58:53.602Z,7.50
2022-10-01T12:01:51.675Z,7.45
2022-10-01T12:04:36.690Z,9.90
2022-10-01T12:07:09.348Z,7.93
2022-10-01T12:09:53.690Z,9.98
2022-10-01T12:12:28.157Z,6.38
2022-10-01T12:15:16.281Z,7.60
2022-10-01T12:17:57.786Z,3.38
2022-10-01T12:20:47.252Z,4.15
2022-10-01T12:23:21.731Z,5.90
2022-10-01T12:25:50.987Z,5.20
2022-10-01T12:28:25.538Z,5.65
2022-10-01T12:31:04.755Z,9.45
2022-10-01T12:33:58.001Z,9.90
2022-10-01T12:36:38.338Z,6.38
2022-10-01T12:39:19.393Z,6.10
2022-10-01T12:42:05.192Z,7.28
2022-10-01T12:44:34.349Z,6.05
2022-10-01T12:47:35.740Z,6.65
2022-10-01T12:50:14.786Z,13.00
2022-10-01T12:52:53.739Z,6.82
2022-10-01T12:55:28.919Z,7.30
2022-10-01T12:58:12.576Z,7.65
2022-10-01T13:00:59.444Z,7.75
2022-10-01T13:03:29.090Z,8.13
2022-10-01T13:06:01.375Z,8.18
2022-10-01T13:08:37.698Z,7.40
2022-10-01T13:11:21.185Z,7.25
2022-10-01T13:13:52.433Z,5.43
2022-10-01T13:16:44.644Z,6.47
2022-10-01T13:19:34.763Z,8.88
2022-10-01T13:22:16.182Z,8.05
2022-10-01T13:24:55.583Z,5.82
2022-10-01T13:27:38.653Z,6.20
2022-10-01T13:30:16.355Z,7.88
2022-10-01T13:32:57.858Z,5.57
2022-10-01T13:35:27.934Z,7.90
2022-10-01T13:37:56.729Z,12.52
2022-10-01T13:40:33.617Z,8.43
2022-10-01T13:43:21.530Z,11.35
2022-10-01T13:45:50.853Z,6.53
2022-10-01T13:48:20.758Z,5.82
2022-10-01T13:51:05.369Z,8.55
2022-10-01T13:53:43.720Z,6.95
2022-10-01T13:56:12.381Z,7.85
2022-10-01T13:58:43.975Z,8.77
2022-10-01T14:01:18.913Z,11.68
2022-10-01T14:04:08.970Z,8.00
2022-10-01T14:06:35.739Z,8.43
2022-10-01T14:09:23.754Z,7.57
2022-10-01T14:11:59.458Z,9.30
2022-10-01T14:14:34.067Z,10.57
2022-10-01T14:17:01.174Z,7.65
2022-10-01T14:19:28.027Z,9.40
2022-10-01T14:22:06.772Z,12.13
2022-10-01T14:24:46.203Z,7.70
2022-10-01T14:27:18.554Z,7.72
2022-10-01T14:30:10.564Z,10.82
2022-10-01T14:32:53.346Z,8.40
2022-10-01T14:35:38.358Z,9.63
2022-10-01T14:38:13.283Z,8.10
2022-10-01T14:40:41.956Z,10.20
2022-10-01T14:43:22.938Z,9.07
2022-10-01T14:46:01.422Z,7.97
2022-10-01T14:48:33.265Z,9.95
2022-10-01T14:51:03.140Z,9.55
2022-10-01T14:53:35.354Z,9.38
2022-10-01T14:56:08.298Z,9.75
2022-10-01T14:58:57.853Z,5.88
2022-10-01T15:01:24.866Z,8.75
2022-10-01T15:03:53.508Z,9.23
2022-10-01T15:06:26.223Z,7.38
2022-10-01T15:08:54.786Z,9.20
2022-10-01T15:11:27.427Z,8.73
2022-10-01T15:13:57.101Z,9.30
2022-10-01T15:16:25.865Z,11.00
2022-10-01T15:18:56.126Z,13.82
2022-10-01T15:21:44.296Z,7.70
2022-10-01T15:24:18.655Z,8.85
2022-10-01T15:26:47.587Z,7.30
2022-10-01T15:29:15.456Z,10.07
2022-10-01T15:31:44.180Z,10.48
2022-10-01T15:34:16.592Z,7.70
2022-10-01T15:36:43.870Z,13.85
2022-10-01T15:39:27.442Z,8.60
2022-10-01T15:41:54.831Z,10.80
2022-10-01T15:44:48.738Z,8.32
2022-10-01T15:47:32.392Z,9.50
2022-10-01T15:50:10.949Z,9.65
2022-10-01T15:52:55.564Z,5.78
2022-10-01T15:55:31.095Z,10.07
2022-10-01T15:58:10.485Z,9.45
2022-10-01T16:01:01.839Z,8.13
2022-10-01T16:03:34.501Z,5.85
2022-10-01T16:06:02.739Z,9.00
2022-10-01T16:08:32.249Z,6.57
2022-10-01T16:11:08.166Z,6.80
2022-10-01T16:13:39.978Z,8.10
2022-10-01T16:16:17.836Z,7.65
2022-10-01T16:18:52.282Z,7.55
2022-10-01T16:21:19.337Z,11.15
2022-10-01T16:23:51.096Z,6.93
2022-10-01T16:26:37.461Z,8.07
2022-10-01T16:29:13.015Z,6.95
2022-10-01T16:31:42.708Z,7.13
2022-10-01T16:34:14.259Z,8.82
2022-10-01T16:36:40.731Z,11.18
2022-10-01T16:39:07.272Z,6.82
2022-10-01T16:41:34.827Z,9.90
2022-10-01T16:44:03.113Z,9.35
2022-10-01T16:46:29.408Z,7.82
2022-10-01T16:48:55.873Z,9.00
2022-10-01T16:51:22.541Z,8.57
2022-10-01T16:53:48.857Z,8.57
2022-10-01T16:56:15.457Z,12.77
2022-10-01T16:58:42.475Z,9.68
2022-10-01T17:01:13.164Z,12.38
2022-10-01T17:03:39.561Z,6.13
2022-10-01T17:06:06.052Z,6.45
2022-10-01T17:08:32.540Z,11.13
2022-10-01T17:11:00.918Z,10.00
2022-10-01T17:13:32.035Z,7.05
2022-10-01T17:15:59.154Z,7.68
2022-10-01T17:18:25.593Z,13.50
2022-10-01T17:20:51.930Z,6.90
2022-10-01T17:23:20.105Z,10.52
2022-10-01T17:25:46.633Z,9.73
2022-10-01T17:28:16.276Z,8.23
2022-10-01T17:30:44.588Z,7.43
2022-10-01T17:33:12.963Z,9.18
2022-10-01T17:35:44.692Z,10.60
2022-10-01T17:38:12.232Z,8.95
2022-10-01T17:40:42.802Z,7.68
2022-10-01T17:43:16.143Z,8.73
2022-10-01T17:45:43.407Z,8.02
2022-10-01T17:48:17.055Z,10.32
2022-10-01T17:50:46.313Z,8.48
2022-10-01T17:53:12.744Z,8.30
2022-10-01T17:55:40.876Z,10.25
2022-10-01T17:58:07.654Z,6.10
2022-10-01T18:00:35.073Z,6.63
2022-10-01T18:03:01.522Z,11.88
2022-10-01T18:05:28.327Z,11.77
2022-10-01T18:07:54.714Z,7.80
2022-10-01T18:10:21.092Z,9.88
2022-10-01T18:12:47.733Z,7.00
2022-10-01T18:15:14.078Z,10.20
2022-10-01T18:17:43.476Z,9.23
2022-10-01T18:20:17.250Z,11.40
2022-10-01T18:22:43.779Z,8.10
2022-10-01T18:25:10.181Z,9.75
2022-10-01T18:27:36.700Z,6.63
2022-10-01T18:30:03.097Z,7.05
2022-10-01T18:32:39.386Z,8.20
2022-10-01T18:35:18.459Z,7.63
2022-10-01T18:37:50.529Z,8.90
2022-10-01T18:43:08.653Z,9.43
2022-10-01T18:45:53.687Z,8.82
2022-10-01T18:48:50.355Z,9.13
2022-10-01T18:51:39.703Z,10.70
2022-10-01T18:54:15.050Z,6.82
2022-10-01T18:57:03.778Z,6.03
2022-10-01T18:59:58.668Z,5.07
2022-10-01T19:02:40.306Z,4.35
2022-10-01T19:05:34.881Z,4.00
2022-10-01T19:08:40.155Z,5.38
2022-10-01T19:11:21.718Z,5.15
2022-10-01T19:14:03.260Z,4.03
2022-10-01T19:16:54.086Z,6.50
2022-10-01T19:19:42.156Z,4.32
2022-10-01T19:22:27.235Z,5.97
2022-10-01T19:25:05.450Z,4.80
2022-10-01T19:27:43.871Z,4.20
2022-10-01T19:30:15.700Z,5.97
2022-10-01T19:33:01.106Z,6.35
2022-10-01T19:35:38.986Z,4.78
2022-10-01T19:38:17.962Z,9.75
2022-10-01T19:41:02.485Z,8.20
2022-10-01T19:43:55.249Z,6.40
2022-10-01T19:46:28.937Z,8.50
2022-10-01T19:49:14.639Z,6.43
2022-10-01T19:51:47.783Z,7.75
2022-10-01T19:54:26.910Z,7.93
2022-10-01T19:56:57.156Z,5.90
2022-10-01T19:59:23.468Z,9.18
2022-10-01T20:01:58.224Z,8.27
2022-10-01T20:04:49.595Z,11.73
2022-10-01T20:07:25.060Z,9.82
2022-10-01T20:10:05.442Z,8.52
2022-10-01T20:12:54.072Z,9.88
2022-10-01T20:15:29.658Z,12.55
2022-10-01T20:18:17.660Z,10.13
2022-10-01T20:21:10.706Z,15.95
2022-10-01T20:24:24.674Z,13.38
2022-10-01T20:27:00.093Z,13.05
2022-10-01T20:29:36.610Z,13.43
2022-10-01T20:32:12.761Z,9.82
2022-10-01T20:34:45.237Z,13.88
2022-10-01T20:37:38.150Z,11.40
2022-10-01T20:40:19.488Z,14.43
2022-10-01T20:42:50.304Z,13.07
2022-10-01T20:45:22.638Z,14.18
2022-10-01T20:47:54.240Z,13.45
2022-10-01T20:50:31.170Z,16.20
2022-10-01T20:53:22.097Z,12.55
2022-10-01T20:55:58.790Z,16.70
2022-10-01T20:58:35.830Z,13.82
2022-10-01T21:01:09.538Z,12.63
2022-10-01T21:03:46.594Z,15.77
2022-10-01T21:06:22.235Z,21.02
2022-10-01T21:08:54.435Z,14.32
2022-10-01T21:11:30.623Z,14.98
2022-10-01T21:14:18.259Z,14.38
2022-10-01T21:16:59.846Z,13.10
2022-10-01T21:19:26.185Z,9.55
2022-10-01T21:22:31.414Z,17.48
2022-10-01T21:25:27.854Z,13.38
2022-10-01T21:28:07.958Z,15.07
2022-10-01T21:31:05.344Z,15.10
2022-10-01T21:33:34.365Z,12.18
2022-10-01T21:36:16.881Z,14.45
2022-10-01T21:38:49.075Z,13.85
2022-10-01T21:44:00.013Z,13.77
2022-10-01T21:46:39.328Z,14.25
2022-10-01T21:49:43.281Z,12.77
2022-10-01T21:52:24.662Z,14.88
2022-10-01T21:55:15.874Z,13.30
2022-10-01T21:57:59.578Z,19.33
2022-10-01T22:00:26.048Z,16.63
2022-10-01T22:03:21.958Z,13.82
2022-10-01T22:06:07.285Z,13.45
2022-10-01T22:09:11.890Z,12.27
2022-10-01T22:11:45.624Z,13.82
2022-10-01T22:14:21.829Z,15.05
2022-10-01T22:16:55.042Z,14.63
2022-10-01T22:19:27.912Z,14.02
2022-10-01T22:22:01.839Z,15.73
2022-10-01T22:24:41.094Z,17.77
2022-10-01T22:27:15.976Z,11.95
2022-10-01T22:29:50.362Z,17.48
2022-10-01T22:32:20.336Z,17.55
2022-10-01T22:34:55.106Z,21.60
2022-10-01T22:37:31.346Z,13.35
2022-10-01T22:40:06.550Z,15.43
2022-10-01T22:42:38.487Z,16.42
2022-10-01T22:45:17.512Z,12.85
2022-10-01T22:48:03.812Z,18.60
2022-10-01T22:50:41.017Z,14.88
2022-10-01T22:53:32.889Z,16.90
2022-10-01T22:55:59.275Z,16.20
2022-10-01T22:58:41.107Z,17.42
2022-10-01T23:01:23.476Z,21.20
2022-10-01T23:04:08.081Z,17.20
2022-10-01T23:06:49.557Z,17.25
2022-10-01T23:09:41.438Z,23.75
2022-10-01T23:12:22.181Z,28.70
2022-10-01T23:14:56.008Z,19.63
2022-10-01T23:17:29.219Z,23.77
2022-10-01T23:20:20.405Z,19.70
2022-10-01T23:23:11.247Z,21.05
2022-10-01T23:25:57.616Z,29.63
2022-10-01T23:28:42.887Z,23.48
2022-10-01T23:31:31.132Z,21.05
2022-10-01T23:34:09.724Z,26.23
2022-10-01T23:36:54.895Z,22.35
2022-10-01T23:39:33.756Z,22.95
2022-10-01T23:42:27.926Z,21.67
2022-10-01T23:45:18.801Z,22.60
2022-10-01T23:48:06.283Z,29.83
2022-10-01T23:50:39.731Z,28.05
2022-10-01T23:53:14.605Z,24.70
2022-10-01T23:56:05.914Z,23.73
2022-10-01T23:58:40.527Z,27.73
